sensor_id;sensor_type;location;lat;lon;timestamp;P1;durP1;ratioP1;P2;durP2;ratioP2
53145;SDS011;39042;53.150;5.898;2023-12-20T00:01:07;7.63;;;0.87;;
53145;SDS011;39042;53.150;5.898;2023-12-20T00:03:32;8.07;;;1.27;;
53145;SDS011;39042;53.150;5.898;2023-12-20T00:05:58;12.60;;;1.43;;
53145;SDS011;39042;53.150;5.898;2023-12-20T00:08:24;9.35;;;0.90;;
53145;SDS011;39042;53.150;5.898;2023-12-20T00:10:50;8.33;;;0.90;;
53145;SDS011;39042;53.150;5.898;2023-12-20T00:13:16;14.60;;;1.80;;
53145;SDS011;39042;53.150;5.898;2023-12-20T00:15:41;7.70;;;0.60;;
53145;SDS011;39042;53.150;5.898;2023-12-20T00:18:07;11.63;;;1.87;;
53145;SDS011;39042;53.150;5.898;2023-12-20T00:20:33;14.73;;;2.00;;
53145;SDS011;39042;53.150;5.898;2023-12-20T00:22:59;10.87;;;1.53;;
53145;SDS011;39042;53.150;5.898;2023-12-20T00:25:25;22.98;;;6.80;;
53145;SDS011;39042;53.150;5.898;2023-12-20T00:27:50;18.93;;;2.67;;
53145;SDS011;39042;53.150;5.898;2023-12-20T00:30:17;11.85;;;1.45;;
53145;SDS011;39042;53.150;5.898;2023-12-20T00:32:42;19.50;;;2.33;;
53145;SDS011;39042;53.150;5.898;2023-12-20T00:35:14;21.05;;;2.67;;
53145;SDS011;39042;53.150;5.898;2023-12-20T00:37:42;21.25;;;3.53;;
53145;SDS011;39042;53.150;5.898;2023-12-20T00:40:08;19.30;;;2.25;;
53145;SDS011;39042;53.150;5.898;2023-12-20T00:42:34;28.15;;;4.30;;
53145;SDS011;39042;53.150;5.898;2023-12-20T00:45:04;21.90;;;3.13;;
53145;SDS011;39042;53.150;5.898;2023-12-20T00:47:30;22.40;;;2.80;;
53145;SDS011;39042;53.150;5.898;2023-12-20T00:49:57;19.05;;;3.53;;
53145;SDS011;39042;53.150;5.898;2023-12-20T00:52:23;16.13;;;2.88;;
53145;SDS011;39042;53.150;5.898;2023-12-20T00:54:49;18.88;;;3.50;;
53145;SDS011;39042;53.150;5.898;2023-12-20T00:57:15;19.17;;;3.40;;
53145;SDS011;39042;53.150;5.898;2023-12-20T00:59:40;25.20;;;3.20;;
53145;SDS011;39042;53.150;5.898;2023-12-20T01:02:06;21.43;;;3.80;;
53145;SDS011;39042;53.150;5.898;2023-12-20T01:04:32;22.10;;;2.35;;
53145;SDS011;39042;53.150;5.898;2023-12-20T01:06:58;18.77;;;3.20;;
53145;SDS011;39042;53.150;5.898;2023-12-20T01:09:24;20.80;;;3.47;;
53145;SDS011;39042;53.150;5.898;2023-12-20T01:11:52;27.23;;;3.03;;
53145;SDS011;39042;53.150;5.898;2023-12-20T01:14:18;24.75;;;3.97;;
53145;SDS011;39042;53.150;5.898;2023-12-20T01:16:44;19.98;;;2.25;;
53145;SDS011;39042;53.150;5.898;2023-12-20T01:19:10;25.83;;;2.88;;
53145;SDS011;39042;53.150;5.898;2023-12-20T01:21:36;17.90;;;2.50;;
53145;SDS011;39042;53.150;5.898;2023-12-20T01:24:02;20.60;;;2.88;;
53145;SDS011;39042;53.150;5.898;2023-12-20T01:26:27;19.95;;;1.95;;
53145;SDS011;39042;53.150;5.898;2023-12-20T01:28:53;24.97;;;2.93;;
53145;SDS011;39042;53.150;5.898;2023-12-20T01:31:19;27.60;;;4.10;;
53145;SDS011;39042;53.150;5.898;2023-12-20T01:33:45;17.40;;;2.67;;
53145;SDS011;39042;53.150;5.898;2023-12-20T01:36:11;17.77;;;1.77;;
53145;SDS011;39042;53.150;5.898;2023-12-20T01:38:37;24.73;;;3.87;;
53145;SDS011;39042;53.150;5.898;2023-12-20T01:41:03;18.42;;;2.22;;
53145;SDS011;39042;53.150;5.898;2023-12-20T01:43:30;24.70;;;2.88;;
53145;SDS011;39042;53.150;5.898;2023-12-20T01:45:56;27.10;;;3.38;;
53145;SDS011;39042;53.150;5.898;2023-12-20T01:48:23;16.35;;;2.90;;
53145;SDS011;39042;53.150;5.898;2023-12-20T01:50:50;29.33;;;4.05;;
53145;SDS011;39042;53.150;5.898;2023-12-20T01:53:17;25.70;;;2.90;;
53145;SDS011;39042;53.150;5.898;2023-12-20T01:55:46;24.73;;;3.05;;
53145;SDS011;39042;53.150;5.898;2023-12-20T01:58:15;18.98;;;2.70;;
53145;SDS011;39042;53.150;5.898;2023-12-20T02:00:42;24.70;;;3.28;;
53145;SDS011;39042;53.150;5.898;2023-12-20T02:03:08;13.73;;;1.83;;
53145;SDS011;39042;53.150;5.898;2023-12-20T02:05:34;19.83;;;3.38;;
53145;SDS011;39042;53.150;5.898;2023-12-20T02:08:01;18.23;;;2.95;;
53145;SDS011;39042;53.150;5.898;2023-12-20T02:10:27;21.38;;;3.22;;
53145;SDS011;39042;53.150;5.898;2023-12-20T02:12:54;25.23;;;3.65;;
53145;SDS011;39042;53.150;5.898;2023-12-20T02:15:20;20.27;;;3.67;;
53145;SDS011;39042;53.150;5.898;2023-12-20T02:17:46;25.50;;;4.55;;
53145;SDS011;39042;53.150;5.898;2023-12-20T02:20:13;22.40;;;2.78;;
53145;SDS011;39042;53.150;5.898;2023-12-20T02:22:39;22.63;;;3.15;;
53145;SDS011;39042;53.150;5.898;2023-12-20T02:25:05;25.43;;;3.33;;
53145;SDS011;39042;53.150;5.898;2023-12-20T02:27:31;30.17;;;3.60;;
53145;SDS011;39042;53.150;5.898;2023-12-20T02:29:57;20.38;;;3.03;;
53145;SDS011;39042;53.150;5.898;2023-12-20T02:32:24;30.85;;;3.78;;
53145;SDS011;39042;53.150;5.898;2023-12-20T02:34:54;40.22;;;4.00;;
53145;SDS011;39042;53.150;5.898;2023-12-20T02:37:20;23.63;;;2.90;;
53145;SDS011;39042;53.150;5.898;2023-12-20T02:39:46;18.17;;;3.40;;
53145;SDS011;39042;53.150;5.898;2023-12-20T02:42:12;25.63;;;3.07;;
53145;SDS011;39042;53.150;5.898;2023-12-20T02:44:38;22.53;;;3.53;;
53145;SDS011;39042;53.150;5.898;2023-12-20T02:47:03;26.73;;;3.70;;
53145;SDS011;39042;53.150;5.898;2023-12-20T02:49:29;24.70;;;3.38;;
53145;SDS011;39042;53.150;5.898;2023-12-20T02:51:55;22.37;;;3.20;;
53145;SDS011;39042;53.150;5.898;2023-12-20T02:54:21;20.37;;;2.67;;
53145;SDS011;39042;53.150;5.898;2023-12-20T02:56:47;25.50;;;3.17;;
53145;SDS011;39042;53.150;5.898;2023-12-20T02:59:13;21.58;;;4.18;;
53145;SDS011;39042;53.150;5.898;2023-12-20T03:01:43;22.17;;;2.63;;
53145;SDS011;39042;53.150;5.898;2023-12-20T03:04:11;22.10;;;3.35;;
53145;SDS011;39042;53.150;5.898;2023-12-20T03:06:37;18.45;;;2.80;;
53145;SDS011;39042;53.150;5.898;2023-12-20T03:09:03;23.63;;;2.75;;
53145;SDS011;39042;53.150;5.898;2023-12-20T03:11:29;19.95;;;2.20;;
53145;SDS011;39042;53.150;5.898;2023-12-20T03:13:56;21.55;;;3.75;;
53145;SDS011;39042;53.150;5.898;2023-12-20T03:16:22;29.98;;;2.92;;
53145;SDS011;39042;53.150;5.898;2023-12-20T03:18:47;21.37;;;4.03;;
53145;SDS011;39042;53.150;5.898;2023-12-20T03:21:13;25.77;;;4.50;;
53145;SDS011;39042;53.150;5.898;2023-12-20T03:23:40;27.40;;;3.90;;
53145;SDS011;39042;53.150;5.898;2023-12-20T03:26:09;31.20;;;3.80;;
53145;SDS011;39042;53.150;5.898;2023-12-20T03:28:35;19.73;;;3.47;;
53145;SDS011;39042;53.150;5.898;2023-12-20T03:31:02;23.30;;;3.08;;
53145;SDS011;39042;53.150;5.898;2023-12-20T03:33:28;17.42;;;2.40;;
53145;SDS011;39042;53.150;5.898;2023-12-20T03:35:54;26.45;;;3.97;;
53145;SDS011;39042;53.150;5.898;2023-12-20T03:38:20;21.70;;;3.07;;
53145;SDS011;39042;53.150;5.898;2023-12-20T03:40:47;16.45;;;3.03;;
53145;SDS011;39042;53.150;5.898;2023-12-20T03:43:12;25.57;;;3.27;;
53145;SDS011;39042;53.150;5.898;2023-12-20T03:45:38;20.27;;;3.33;;
53145;SDS011;39042;53.150;5.898;2023-12-20T03:48:04;29.20;;;2.90;;
53145;SDS011;39042;53.150;5.898;2023-12-20T03:50:30;16.17;;;2.92;;
53145;SDS011;39042;53.150;5.898;2023-12-20T03:52:56;18.90;;;2.67;;
53145;SDS011;39042;53.150;5.898;2023-12-20T03:55:22;23.60;;;3.03;;
53145;SDS011;39042;53.150;5.898;2023-12-20T03:57:48;16.33;;;2.83;;
53145;SDS011;39042;53.150;5.898;2023-12-20T04:00:14;17.00;;;3.10;;
53145;SDS011;39042;53.150;5.898;2023-12-20T04:02:40;27.20;;;3.38;;
53145;SDS011;39042;53.150;5.898;2023-12-20T04:05:07;18.75;;;2.78;;
53145;SDS011;39042;53.150;5.898;2023-12-20T04:07:34;25.33;;;3.10;;
53145;SDS011;39042;53.150;5.898;2023-12-20T04:10:00;25.52;;;3.80;;
53145;SDS011;39042;53.150;5.898;2023-12-20T04:12:27;19.73;;;2.60;;
53145;SDS011;39042;53.150;5.898;2023-12-20T04:14:53;22.95;;;3.35;;
53145;SDS011;39042;53.150;5.898;2023-12-20T04:17:19;18.13;;;2.87;;
53145;SDS011;39042;53.150;5.898;2023-12-20T04:19:47;16.92;;;2.88;;
53145;SDS011;39042;53.150;5.898;2023-12-20T04:22:14;25.30;;;2.75;;
53145;SDS011;39042;53.150;5.898;2023-12-20T04:24:40;28.23;;;4.13;;
53145;SDS011;39042;53.150;5.898;2023-12-20T04:27:07;30.55;;;4.32;;
53145;SDS011;39042;53.150;5.898;2023-12-20T04:29:33;27.88;;;3.60;;
53145;SDS011;39042;53.150;5.898;2023-12-20T04:31:59;19.35;;;3.17;;
53145;SDS011;39042;53.150;5.898;2023-12-20T04:34:25;24.88;;;3.70;;
53145;SDS011;39042;53.150;5.898;2023-12-20T04:36:51;17.70;;;3.00;;
53145;SDS011;39042;53.150;5.898;2023-12-20T04:39:17;29.77;;;3.63;;
53145;SDS011;39042;53.150;5.898;2023-12-20T04:41:43;23.80;;;3.40;;
53145;SDS011;39042;53.150;5.898;2023-12-20T04:44:09;24.00;;;3.20;;
53145;SDS011;39042;53.150;5.898;2023-12-20T04:46:35;24.35;;;3.45;;
53145;SDS011;39042;53.150;5.898;2023-12-20T04:49:01;29.93;;;3.87;;
53145;SDS011;39042;53.150;5.898;2023-12-20T04:51:27;34.80;;;4.23;;
53145;SDS011;39042;53.150;5.898;2023-12-20T04:53:52;28.35;;;3.33;;
53145;SDS011;39042;53.150;5.898;2023-12-20T04:56:18;19.60;;;3.57;;
53145;SDS011;39042;53.150;5.898;2023-12-20T04:58:44;25.27;;;3.80;;
53145;SDS011;39042;53.150;5.898;2023-12-20T05:01:10;25.57;;;3.27;;
53145;SDS011;39042;53.150;5.898;2023-12-20T05:03:37;25.38;;;4.25;;
53145;SDS011;39042;53.150;5.898;2023-12-20T05:06:03;27.93;;;3.57;;
53145;SDS011;39042;53.150;5.898;2023-12-20T05:08:29;20.20;;;3.10;;
53145;SDS011;39042;53.150;5.898;2023-12-20T05:10:54;24.05;;;3.97;;
53145;SDS011;39042;53.150;5.898;2023-12-20T05:13:20;21.50;;;3.10;;
53145;SDS011;39042;53.150;5.898;2023-12-20T05:15:46;20.50;;;3.10;;
53145;SDS011;39042;53.150;5.898;2023-12-20T05:18:12;24.57;;;3.57;;
53145;SDS011;39042;53.150;5.898;2023-12-20T05:20:39;31.38;;;3.42;;
53145;SDS011;39042;53.150;5.898;2023-12-20T05:23:05;20.13;;;3.25;;
53145;SDS011;39042;53.150;5.898;2023-12-20T05:25:31;23.42;;;3.10;;
53145;SDS011;39042;53.150;5.898;2023-12-20T05:27:57;28.30;;;3.33;;
53145;SDS011;39042;53.150;5.898;2023-12-20T05:30:23;23.08;;;3.45;;
53145;SDS011;39042;53.150;5.898;2023-12-20T05:32:49;36.27;;;4.03;;
53145;SDS011;39042;53.150;5.898;2023-12-20T05:35:15;23.20;;;4.00;;
53145;SDS011;39042;53.150;5.898;2023-12-20T05:37:41;26.60;;;4.07;;
53145;SDS011;39042;53.150;5.898;2023-12-20T05:40:07;24.00;;;3.33;;
53145;SDS011;39042;53.150;5.898;2023-12-20T05:42:36;21.02;;;3.67;;
53145;SDS011;39042;53.150;5.898;2023-12-20T05:45:03;23.33;;;3.88;;
53145;SDS011;39042;53.150;5.898;2023-12-20T05:47:29;22.02;;;2.70;;
53145;SDS011;39042;53.150;5.898;2023-12-20T05:49:55;19.03;;;2.57;;
53145;SDS011;39042;53.150;5.898;2023-12-20T05:52:21;19.50;;;2.90;;
53145;SDS011;39042;53.150;5.898;2023-12-20T05:54:47;23.57;;;3.47;;
53145;SDS011;39042;53.150;5.898;2023-12-20T05:57:13;22.23;;;3.33;;
53145;SDS011;39042;53.150;5.898;2023-12-20T05:59:39;30.58;;;4.95;;
53145;SDS011;39042;53.150;5.898;2023-12-20T06:02:05;21.25;;;2.95;;
53145;SDS011;39042;53.150;5.898;2023-12-20T06:04:31;20.13;;;3.20;;
53145;SDS011;39042;53.150;5.898;2023-12-20T06:06:57;17.52;;;3.42;;
53145;SDS011;39042;53.150;5.898;2023-12-20T06:09:23;15.87;;;2.90;;
53145;SDS011;39042;53.150;5.898;2023-12-20T06:11:49;17.93;;;2.93;;
53145;SDS011;39042;53.150;5.898;2023-12-20T06:14:15;22.35;;;3.30;;
53145;SDS011;39042;53.150;5.898;2023-12-20T06:16:40;21.87;;;3.50;;
53145;SDS011;39042;53.150;5.898;2023-12-20T06:19:06;27.77;;;4.37;;
53145;SDS011;39042;53.150;5.898;2023-12-20T06:21:32;22.00;;;3.43;;
53145;SDS011;39042;53.150;5.898;2023-12-20T06:23:58;20.53;;;3.27;;
53145;SDS011;39042;53.150;5.898;2023-12-20T06:26:25;24.25;;;3.42;;
53145;SDS011;39042;53.150;5.898;2023-12-20T06:28:51;20.50;;;2.97;;
53145;SDS011;39042;53.150;5.898;2023-12-20T06:31:17;22.67;;;3.20;;
53145;SDS011;39042;53.150;5.898;2023-12-20T06:33:43;20.87;;;3.03;;
53145;SDS011;39042;53.150;5.898;2023-12-20T06:36:12;25.02;;;3.97;;
53145;SDS011;39042;53.150;5.898;2023-12-20T06:38:39;27.17;;;3.42;;
53145;SDS011;39042;53.150;5.898;2023-12-20T06:41:05;20.90;;;2.93;;
53145;SDS011;39042;53.150;5.898;2023-12-20T06:43:31;19.38;;;2.70;;
53145;SDS011;39042;53.150;5.898;2023-12-20T06:45:57;28.58;;;4.00;;
53145;SDS011;39042;53.150;5.898;2023-12-20T06:48:25;19.42;;;3.28;;
53145;SDS011;39042;53.150;5.898;2023-12-20T06:50:51;22.10;;;3.30;;
53145;SDS011;39042;53.150;5.898;2023-12-20T06:53:17;23.17;;;3.67;;
53145;SDS011;39042;53.150;5.898;2023-12-20T06:55:42;22.33;;;3.33;;
53145;SDS011;39042;53.150;5.898;2023-12-20T06:58:08;28.20;;;3.70;;
53145;SDS011;39042;53.150;5.898;2023-12-20T07:00:34;21.80;;;3.00;;
53145;SDS011;39042;53.150;5.898;2023-12-20T07:03:00;20.33;;;3.13;;
53145;SDS011;39042;53.150;5.898;2023-12-20T07:05:26;21.20;;;3.73;;
53145;SDS011;39042;53.150;5.898;2023-12-20T07:07:52;19.63;;;3.50;;
53145;SDS011;39042;53.150;5.898;2023-12-20T07:10:17;24.33;;;3.90;;
53145;SDS011;39042;53.150;5.898;2023-12-20T07:12:43;23.93;;;3.60;;
53145;SDS011;39042;53.150;5.898;2023-12-20T07:15:09;27.92;;;3.30;;
53145;SDS011;39042;53.150;5.898;2023-12-20T07:17:35;22.83;;;4.32;;
53145;SDS011;39042;53.150;5.898;2023-12-20T07:20:02;21.63;;;3.97;;
53145;SDS011;39042;53.150;5.898;2023-12-20T07:22:32;26.15;;;3.78;;
53145;SDS011;39042;53.150;5.898;2023-12-20T07:24:59;25.60;;;3.17;;
53145;SDS011;39042;53.150;5.898;2023-12-20T07:27:25;20.33;;;3.17;;
53145;SDS011;39042;53.150;5.898;2023-12-20T07:29:51;18.58;;;3.10;;
53145;SDS011;39042;53.150;5.898;2023-12-20T07:32:17;20.47;;;2.97;;
53145;SDS011;39042;53.150;5.898;2023-12-20T07:34:43;25.75;;;4.05;;
53145;SDS011;39042;53.150;5.898;2023-12-20T07:37:09;19.20;;;3.97;;
53145;SDS011;39042;53.150;5.898;2023-12-20T07:39:40;23.95;;;3.20;;
53145;SDS011;39042;53.150;5.898;2023-12-20T07:42:06;24.23;;;3.83;;
53145;SDS011;39042;53.150;5.898;2023-12-20T07:44:33;23.90;;;4.32;;
53145;SDS011;39042;53.150;5.898;2023-12-20T07:47:01;26.63;;;3.67;;
53145;SDS011;39042;53.150;5.898;2023-12-20T07:49:27;22.88;;;3.63;;
53145;SDS011;39042;53.150;5.898;2023-12-20T07:51:53;23.27;;;3.25;;
53145;SDS011;39042;53.150;5.898;2023-12-20T07:54:18;27.97;;;4.57;;
53145;SDS011;39042;53.150;5.898;2023-12-20T07:56:45;24.30;;;3.33;;
53145;SDS011;39042;53.150;5.898;2023-12-20T07:59:12;16.73;;;2.65;;
53145;SDS011;39042;53.150;5.898;2023-12-20T08:01:37;11.53;;;1.37;;
53145;SDS011;39042;53.150;5.898;2023-12-20T08:04:03;19.20;;;2.13;;
53145;SDS011;39042;53.150;5.898;2023-12-20T08:06:29;11.87;;;1.63;;
53145;SDS011;39042;53.150;5.898;2023-12-20T08:08:55;16.77;;;2.00;;
53145;SDS011;39042;53.150;5.898;2023-12-20T08:11:22;17.58;;;2.25;;
53145;SDS011;39042;53.150;5.898;2023-12-20T08:13:48;23.60;;;3.47;;
53145;SDS011;39042;53.150;5.898;2023-12-20T08:16:13;29.37;;;3.33;;
53145;SDS011;39042;53.150;5.898;2023-12-20T08:18:40;21.30;;;3.40;;
53145;SDS011;39042;53.150;5.898;2023-12-20T08:21:07;24.83;;;3.15;;
53145;SDS011;39042;53.150;5.898;2023-12-20T08:23:33;30.45;;;3.85;;
53145;SDS011;39042;53.150;5.898;2023-12-20T08:26:06;29.73;;;3.70;;
53145;SDS011;39042;53.150;5.898;2023-12-20T08:28:33;25.20;;;3.38;;
53145;SDS011;39042;53.150;5.898;2023-12-20T08:30:59;22.27;;;2.83;;
53145;SDS011;39042;53.150;5.898;2023-12-20T08:33:25;25.08;;;2.92;;
53145;SDS011;39042;53.150;5.898;2023-12-20T08:35:51;21.70;;;2.60;;
53145;SDS011;39042;53.150;5.898;2023-12-20T08:38:17;26.63;;;3.67;;
53145;SDS011;39042;53.150;5.898;2023-12-20T08:40:43;26.23;;;3.33;;
53145;SDS011;39042;53.150;5.898;2023-12-20T08:43:09;16.75;;;3.35;;
53145;SDS011;39042;53.150;5.898;2023-12-20T08:45:35;24.95;;;3.63;;
53145;SDS011;39042;53.150;5.898;2023-12-20T08:48:01;29.17;;;4.00;;
53145;SDS011;39042;53.150;5.898;2023-12-20T08:50:28;24.45;;;3.67;;
53145;SDS011;39042;53.150;5.898;2023-12-20T08:52:54;20.73;;;2.80;;
53145;SDS011;39042;53.150;5.898;2023-12-20T08:55:22;23.52;;;3.72;;
53145;SDS011;39042;53.150;5.898;2023-12-20T08:57:48;14.77;;;2.37;;
53145;SDS011;39042;53.150;5.898;2023-12-20T09:00:14;17.05;;;2.67;;
53145;SDS011;39042;53.150;5.898;2023-12-20T09:02:41;8.25;;;0.40;;
53145;SDS011;39042;53.150;5.898;2023-12-20T09:05:07;5.27;;;0.20;;
53145;SDS011;39042;53.150;5.898;2023-12-20T09:07:33;3.03;;;0.32;;
53145;SDS011;39042;53.150;5.898;2023-12-20T09:09:59;7.60;;;0.50;;
53145;SDS011;39042;53.150;5.898;2023-12-20T09:12:25;7.63;;;0.47;;
53145;SDS011;39042;53.150;5.898;2023-12-20T09:14:53;11.40;;;1.02;;
53145;SDS011;39042;53.150;5.898;2023-12-20T09:17:19;9.48;;;0.57;;
53145;SDS011;39042;53.150;5.898;2023-12-20T09:19:46;8.13;;;1.02;;
53145;SDS011;39042;53.150;5.898;2023-12-20T09:22:11;6.13;;;0.33;;
53145;SDS011;39042;53.150;5.898;2023-12-20T09:24:38;11.15;;;1.90;;
53145;SDS011;39042;53.150;5.898;2023-12-20T09:27:04;5.95;;;0.85;;
53145;SDS011;39042;53.150;5.898;2023-12-20T09:29:31;13.40;;;1.73;;
53145;SDS011;39042;53.150;5.898;2023-12-20T09:31:57;9.77;;;0.85;;
53145;SDS011;39042;53.150;5.898;2023-12-20T09:34:23;11.60;;;0.60;;
53145;SDS011;39042;53.150;5.898;2023-12-20T09:36:49;10.05;;;0.85;;
53145;SDS011;39042;53.150;5.898;2023-12-20T09:39:17;12.90;;;1.63;;
53145;SDS011;39042;53.150;5.898;2023-12-20T09:44:29;8.40;;;0.88;;
53145;SDS011;39042;53.150;5.898;2023-12-20T09:46:56;14.55;;;1.30;;
53145;SDS011;39042;53.150;5.898;2023-12-20T09:49:23;8.93;;;1.00;;
53145;SDS011;39042;53.150;5.898;2023-12-20T09:51:50;10.63;;;0.95;;
53145;SDS011;39042;53.150;5.898;2023-12-20T09:54:17;10.57;;;1.40;;
53145;SDS011;39042;53.150;5.898;2023-12-20T09:56:43;7.40;;;0.70;;
53145;SDS011;39042;53.150;5.898;2023-12-20T09:59:10;11.35;;;1.25;;
53145;SDS011;39042;53.150;5.898;2023-12-20T10:01:36;14.80;;;0.98;;
53145;SDS011;39042;53.150;5.898;2023-12-20T10:04:05;7.18;;;0.90;;
53145;SDS011;39042;53.150;5.898;2023-12-20T10:09:07;8.80;;;0.93;;
53145;SDS011;39042;53.150;5.898;2023-12-20T10:11:37;11.57;;;1.17;;
53145;SDS011;39042;53.150;5.898;2023-12-20T10:14:04;9.13;;;0.82;;
53145;SDS011;39042;53.150;5.898;2023-12-20T10:16:31;12.32;;;1.10;;
53145;SDS011;39042;53.150;5.898;2023-12-20T10:21:24;9.88;;;0.80;;
53145;SDS011;39042;53.150;5.898;2023-12-20T10:23:57;12.98;;;1.73;;
53145;SDS011;39042;53.150;5.898;2023-12-20T10:26:24;10.25;;;1.33;;
53145;SDS011;39042;53.150;5.898;2023-12-20T10:28:52;14.25;;;1.05;;
53145;SDS011;39042;53.150;5.898;2023-12-20T10:34:15;12.95;;;1.08;;
53145;SDS011;39042;53.150;5.898;2023-12-20T10:36:41;12.15;;;1.00;;
53145;SDS011;39042;53.150;5.898;2023-12-20T10:39:07;13.33;;;1.30;;
53145;SDS011;39042;53.150;5.898;2023-12-20T10:41:34;13.57;;;1.45;;
53145;SDS011;39042;53.150;5.898;2023-12-20T10:44:06;11.30;;;1.10;;
53145;SDS011;39042;53.150;5.898;2023-12-20T10:46:34;9.75;;;1.05;;
53145;SDS011;39042;53.150;5.898;2023-12-20T10:49:02;10.18;;;1.23;;
53145;SDS011;39042;53.150;5.898;2023-12-20T10:51:28;12.23;;;1.48;;
53145;SDS011;39042;53.150;5.898;2023-12-20T10:53:55;11.27;;;1.52;;
53145;SDS011;39042;53.150;5.898;2023-12-20T10:56:21;5.95;;;0.65;;
53145;SDS011;39042;53.150;5.898;2023-12-20T10:58:49;7.88;;;0.65;;
53145;SDS011;39042;53.150;5.898;2023-12-20T11:01:18;16.50;;;1.63;;
53145;SDS011;39042;53.150;5.898;2023-12-20T11:03:49;9.90;;;1.17;;
53145;SDS011;39042;53.150;5.898;2023-12-20T11:08:51;8.30;;;0.70;;
53145;SDS011;39042;53.150;5.898;2023-12-20T11:11:58;6.10;;;1.00;;
53145;SDS011;39042;53.150;5.898;2023-12-20T11:14:41;9.52;;;1.42;;
53145;SDS011;39042;53.150;5.898;2023-12-20T11:17:22;9.15;;;0.88;;
53145;SDS011;39042;53.150;5.898;2023-12-20T11:22:19;12.50;;;1.30;;
53145;SDS011;39042;53.150;5.898;2023-12-20T11:24:46;11.57;;;1.92;;
53145;SDS011;39042;53.150;5.898;2023-12-20T11:27:13;14.07;;;1.88;;
53145;SDS011;39042;53.150;5.898;2023-12-20T11:29:40;16.35;;;2.45;;
53145;SDS011;39042;53.150;5.898;2023-12-20T11:34:55;15.68;;;2.35;;
53145;SDS011;39042;53.150;5.898;2023-12-20T11:37:30;13.65;;;1.95;;
53145;SDS011;39042;53.150;5.898;2023-12-20T11:40:00;15.13;;;2.20;;
53145;SDS011;39042;53.150;5.898;2023-12-20T11:42:32;12.38;;;1.50;;
53145;SDS011;39042;53.150;5.898;2023-12-20T11:45:01;15.52;;;1.35;;
53145;SDS011;39042;53.150;5.898;2023-12-20T11:47:29;11.00;;;1.38;;
53145;SDS011;39042;53.150;5.898;2023-12-20T11:49:56;9.88;;;1.50;;
53145;SDS011;39042;53.150;5.898;2023-12-20T11:52:22;12.97;;;2.53;;
53145;SDS011;39042;53.150;5.898;2023-12-20T11:54:48;12.70;;;1.50;;
53145;SDS011;39042;53.150;5.898;2023-12-20T11:57:14;16.23;;;2.30;;
53145;SDS011;39042;53.150;5.898;2023-12-20T11:59:39;14.73;;;1.77;;
53145;SDS011;39042;53.150;5.898;2023-12-20T12:02:05;19.13;;;2.93;;
53145;SDS011;39042;53.150;5.898;2023-12-20T12:04:31;12.57;;;3.20;;
53145;SDS011;39042;53.150;5.898;2023-12-20T12:06:57;15.97;;;3.73;;
53145;SDS011;39042;53.150;5.898;2023-12-20T12:09:23;12.80;;;2.17;;
53145;SDS011;39042;53.150;5.898;2023-12-20T12:11:49;12.97;;;3.00;;
53145;SDS011;39042;53.150;5.898;2023-12-20T12:14:15;18.03;;;2.00;;
53145;SDS011;39042;53.150;5.898;2023-12-20T12:16:44;13.47;;;1.90;;
53145;SDS011;39042;53.150;5.898;2023-12-20T12:19:23;18.40;;;2.13;;
53145;SDS011;39042;53.150;5.898;2023-12-20T12:21:50;15.90;;;1.50;;
53145;SDS011;39042;53.150;5.898;2023-12-20T12:26:49;13.57;;;1.17;;
53145;SDS011;39042;53.150;5.898;2023-12-20T12:29:16;11.63;;;1.42;;
53145;SDS011;39042;53.150;5.898;2023-12-20T12:31:42;12.35;;;1.45;;
53145;SDS011;39042;53.150;5.898;2023-12-20T12:34:08;11.97;;;1.33;;
53145;SDS011;39042;53.150;5.898;2023-12-20T12:36:34;8.80;;;1.60;;
53145;SDS011;39042;53.150;5.898;2023-12-20T12:39:03;10.90;;;0.65;;
53145;SDS011;39042;53.150;5.898;2023-12-20T12:41:30;12.02;;;0.93;;
53145;SDS011;39042;53.150;5.898;2023-12-20T12:43:55;6.50;;;0.83;;
53145;SDS011;39042;53.150;5.898;2023-12-20T12:46:21;7.30;;;1.40;;
53145;SDS011;39042;53.150;5.898;2023-12-20T12:48:47;5.50;;;0.60;;
53145;SDS011;39042;53.150;5.898;2023-12-20T12:51:14;8.35;;;0.52;;
53145;SDS011;39042;53.150;5.898;2023-12-20T12:53:40;9.83;;;0.87;;
53145;SDS011;39042;53.150;5.898;2023-12-20T12:56:06;16.93;;;1.33;;
53145;SDS011;39042;53.150;5.898;2023-12-20T12:58:33;7.57;;;0.80;;
53145;SDS011;39042;53.150;5.898;2023-12-20T13:00:59;8.73;;;1.48;;
53145;SDS011;39042;53.150;5.898;2023-12-20T13:03:25;10.73;;;1.23;;
53145;SDS011;39042;53.150;5.898;2023-12-20T13:05:50;9.37;;;0.80;;
53145;SDS011;39042;53.150;5.898;2023-12-20T13:08:16;17.40;;;1.63;;
53145;SDS011;39042;53.150;5.898;2023-12-20T13:10:43;10.13;;;1.13;;
53145;SDS011;39042;53.150;5.898;2023-12-20T13:13:08;11.33;;;1.03;;
53145;SDS011;39042;53.150;5.898;2023-12-20T13:15:34;7.40;;;1.07;;
53145;SDS011;39042;53.150;5.898;2023-12-20T13:18:00;6.90;;;0.80;;
53145;SDS011;39042;53.150;5.898;2023-12-20T13:20:26;11.47;;;0.77;;
53145;SDS011;39042;53.150;5.898;2023-12-20T13:22:52;8.57;;;0.97;;
53145;SDS011;39042;53.150;5.898;2023-12-20T13:25:17;10.00;;;1.47;;
53145;SDS011;39042;53.150;5.898;2023-12-20T13:27:43;8.50;;;0.70;;
53145;SDS011;39042;53.150;5.898;2023-12-20T13:30:09;6.00;;;0.53;;
53145;SDS011;39042;53.150;5.898;2023-12-20T13:32:35;6.65;;;0.88;;
53145;SDS011;39042;53.150;5.898;2023-12-20T13:35:01;8.17;;;0.80;;
53145;SDS011;39042;53.150;5.898;2023-12-20T13:37:27;10.50;;;1.07;;
53145;SDS011;39042;53.150;5.898;2023-12-20T13:39:53;6.03;;;0.50;;
53145;SDS011;39042;53.150;5.898;2023-12-20T13:42:18;8.97;;;0.63;;
53145;SDS011;39042;53.150;5.898;2023-12-20T13:47:12;8.43;;;1.00;;
53145;SDS011;39042;53.150;5.898;2023-12-20T13:49:38;8.30;;;0.97;;
53145;SDS011;39042;53.150;5.898;2023-12-20T13:52:03;6.87;;;0.80;;
53145;SDS011;39042;53.150;5.898;2023-12-20T13:54:29;11.37;;;1.00;;
53145;SDS011;39042;53.150;5.898;2023-12-20T13:56:55;5.38;;;0.77;;
53145;SDS011;39042;53.150;5.898;2023-12-20T13:59:23;10.32;;;1.52;;
53145;SDS011;39042;53.150;5.898;2023-12-20T14:01:48;10.30;;;2.93;;
53145;SDS011;39042;53.150;5.898;2023-12-20T14:06:41;7.53;;;1.90;;
53145;SDS011;39042;53.150;5.898;2023-12-20T14:09:07;7.25;;;0.70;;
53145;SDS011;39042;53.150;5.898;2023-12-20T14:11:33;10.18;;;1.33;;
53145;SDS011;39042;53.150;5.898;2023-12-20T14:13:59;11.33;;;1.40;;
53145;SDS011;39042;53.150;5.898;2023-12-20T14:16:27;9.23;;;1.50;;
53145;SDS011;39042;53.150;5.898;2023-12-20T14:18:52;8.57;;;0.93;;
53145;SDS011;39042;53.150;5.898;2023-12-20T14:21:22;8.57;;;1.77;;
53145;SDS011;39042;53.150;5.898;2023-12-20T14:23:49;12.52;;;1.25;;
53145;SDS011;39042;53.150;5.898;2023-12-20T14:26:15;8.67;;;0.77;;
53145;SDS011;39042;53.150;5.898;2023-12-20T14:28:41;9.02;;;0.93;;
53145;SDS011;39042;53.150;5.898;2023-12-20T14:31:07;9.05;;;0.70;;
53145;SDS011;39042;53.150;5.898;2023-12-20T14:33:36;7.28;;;1.33;;
53145;SDS011;39042;53.150;5.898;2023-12-20T14:36:06;14.85;;;3.47;;
53145;SDS011;39042;53.150;5.898;2023-12-20T14:38:32;18.00;;;6.28;;
53145;SDS011;39042;53.150;5.898;2023-12-20T14:40:58;17.15;;;2.33;;
53145;SDS011;39042;53.150;5.898;2023-12-20T14:43:25;21.70;;;1.80;;
53145;SDS011;39042;53.150;5.898;2023-12-20T14:45:52;12.10;;;1.30;;
53145;SDS011;39042;53.150;5.898;2023-12-20T14:48:18;10.65;;;1.88;;
53145;SDS011;39042;53.150;5.898;2023-12-20T14:50:44;15.77;;;2.53;;
53145;SDS011;39042;53.150;5.898;2023-12-20T14:53:12;19.50;;;3.15;;
53145;SDS011;39042;53.150;5.898;2023-12-20T14:55:40;16.13;;;2.17;;
53145;SDS011;39042;53.150;5.898;2023-12-20T14:58:06;20.00;;;2.33;;